createdAt,value
2023-04-16T00:02:13.126Z,3.25
2023-04-16T00:07:14.768Z,3.38
2023-04-16T00:12:17.021Z,3.28
2023-04-16T00:17:18.540Z,4.07
2023-04-16T00:22:20.128Z,3.53
2023-04-16T00:27:21.647Z,3.55
2023-04-16T00:32:23.190Z,3.88
2023-04-16T00:37:24.722Z,3.42
2023-04-16T00:42:26.308Z,3.60
2023-04-16T00:47:28.140Z,4.00
2023-04-16T00:52:31.465Z,4.93
2023-04-16T00:57:32.947Z,4.93
2023-04-16T01:02:34.783Z,4.35
2023-04-16T01:07:36.861Z,4.18
2023-04-16T01:12:38.419Z,5.00
2023-04-16T01:17:39.967Z,6.35
2023-04-16T01:22:42.537Z,5.10
2023-04-16T01:27:44.058Z,5.07
2023-04-16T01:32:45.629Z,6.25
2023-04-16T01:37:47.123Z,6.00
2023-04-16T01:42:48.567Z,7.57
2023-04-16T01:47:51.221Z,7.55
2023-04-16T01:52:52.840Z,7.07
2023-04-16T01:57:54.390Z,7.95
2023-04-16T02:02:56.284Z,7.85
2023-04-16T02:07:57.958Z,7.95
2023-04-16T02:12:59.496Z,7.88
2023-04-16T02:18:01.146Z,8.88
2023-04-16T02:23:02.655Z,9.38
2023-04-16T02:28:04.257Z,9.38
2023-04-16T02:33:07.426Z,8.38
2023-04-16T02:38:09.057Z,9.27
2023-04-16T02:43:10.747Z,10.02
2023-04-16T02:48:12.297Z,9.80
2023-04-16T02:53:13.884Z,10.55
2023-04-16T02:58:15.438Z,9.45
2023-04-16T03:03:17.020Z,8.88
2023-04-16T03:08:18.574Z,10.23
2023-04-16T03:13:20.224Z,10.55
2023-04-16T03:18:21.762Z,10.27
2023-04-16T03:23:23.272Z,10.23
2023-04-16T03:28:24.839Z,9.70
2023-04-16T03:33:26.306Z,8.90
2023-04-16T03:38:27.840Z,9.15
2023-04-16T03:43:29.315Z,8.43
2023-04-16T03:48:30.782Z,9.07
2023-04-16T03:53:32.285Z,8.73
2023-04-16T03:58:33.794Z,8.38
2023-04-16T04:03:35.489Z,7.70
2023-04-16T04:08:37.063Z,8.18
2023-04-16T04:13:38.799Z,9.15
2023-04-16T04:18:40.312Z,9.77
2023-04-16T04:23:42.487Z,11.35
2023-04-16T04:28:44.108Z,10.18
2023-04-16T04:33:45.740Z,11.30
2023-04-16T04:38:47.281Z,10.93
2023-04-16T04:43:48.781Z,11.00
2023-04-16T04:48:50.556Z,11.25
2023-04-16T04:53:52.155Z,10.38
2023-04-16T04:58:53.688Z,10.40
2023-04-16T05:03:55.503Z,11.48
2023-04-16T05:08:57.175Z,12.57
2023-04-16T05:13:58.642Z,13.18
2023-04-16T05:19:00.462Z,13.15
2023-04-16T05:24:02.053Z,10.60
2023-04-16T05:29:03.548Z,9.50
2023-04-16T05:34:05.002Z,9.38
2023-04-16T05:39:07.749Z,9.85
2023-04-16T05:44:09.435Z,10.98
2023-04-16T05:49:11.567Z,9.48
2023-04-16T05:54:13.319Z,8.57
2023-04-16T05:59:14.852Z,7.32
2023-04-16T06:04:16.520Z,7.03
2023-04-16T06:09:18.938Z,6.82
2023-04-16T06:14:20.507Z,6.38
2023-04-16T06:19:22.376Z,5.25
2023-04-16T06:24:23.940Z,5.47
2023-04-16T06:29:37.028Z,4.90
2023-04-16T06:34:42.547Z,4.40
2023-04-16T06:39:44.188Z,3.97
2023-04-16T06:44:46.578Z,3.97
2023-04-16T06:49:48.068Z,4.22
2023-04-16T06:54:49.590Z,3.45
2023-04-16T06:59:51.173Z,3.30
2023-04-16T07:04:52.646Z,3.35
2023-04-16T07:09:54.199Z,3.50
2023-04-16T07:14:55.700Z,2.83
2023-04-16T07:19:57.192Z,2.92
2023-04-16T07:24:58.658Z,3.53
2023-04-16T07:30:00.218Z,3.80
2023-04-16T07:35:01.875Z,3.70
2023-04-16T07:40:04.449Z,4.28
2023-04-16T07:45:06.496Z,4.88
2023-04-16T07:50:08.403Z,4.72
2023-04-16T07:55:10.053Z,4.38
2023-04-16T08:00:12.067Z,6.00
2023-04-16T08:05:13.668Z,5.60
2023-04-16T08:10:15.669Z,6.43
2023-04-16T08:15:17.250Z,7.40
2023-04-16T08:20:19.488Z,9.07
2023-04-16T08:25:21.417Z,10.30
2023-04-16T08:30:23.021Z,11.75
2023-04-16T08:35:24.569Z,11.65
2023-04-16T08:40:29.562Z,10.52
2023-04-16T08:45:34.878Z,12.05
2023-04-16T08:50:36.597Z,10.48
2023-04-16T08:55:49.120Z,9.20
2023-04-16T09:00:51.502Z,9.02
2023-04-16T09:05:55.485Z,8.27
2023-04-16T09:10:57.203Z,6.85
2023-04-16T09:15:59.720Z,5.88
2023-04-16T09:21:01.203Z,6.32
2023-04-16T09:26:04.798Z,6.18
2023-04-16T09:31:11.261Z,7.68
2023-04-16T09:36:12.831Z,7.50
2023-04-16T09:41:18.037Z,8.50
2023-04-16T09:46:19.599Z,8.75
2023-04-16T09:51:21.097Z,11.60
2023-04-16T09:56:30.412Z,11.77
2023-04-16T10:01:31.957Z,13.20
2023-04-16T10:06:34.544Z,13.57
2023-04-16T10:11:36.088Z,13.18
2023-04-16T10:16:40.010Z,14.15
2023-04-16T10:21:41.885Z,14.73
2023-04-16T10:26:44.775Z,14.50
2023-04-16T10:31:47.670Z,14.48
2023-04-16T10:36:53.707Z,13.38
2023-04-16T10:42:12.221Z,12.30
2023-04-16T10:47:14.385Z,13.75
2023-04-16T10:52:19.477Z,12.75
2023-04-16T10:57:21.648Z,12.05
2023-04-16T11:02:29.031Z,11.10
2023-04-16T11:12:38.508Z,9.43
2023-04-16T11:17:45.072Z,8.95
2023-04-16T11:22:47.131Z,9.65
2023-04-16T11:27:49.371Z,9.50
2023-04-16T11:32:51.646Z,9.77
2023-04-16T11:37:57.132Z,9.40
2023-04-16T11:43:15.332Z,9.20
2023-04-16T11:48:16.892Z,10.20
2023-04-16T11:53:18.420Z,10.00
2023-04-16T11:58:22.071Z,11.38
2023-04-16T12:03:47.003Z,10.32
2023-04-16T12:08:48.922Z,10.70
2023-04-16T12:14:09.708Z,11.98
2023-04-16T12:19:12.957Z,10.25
2023-04-16T12:24:24.030Z,10.85
2023-04-16T12:29:27.503Z,10.23
2023-04-16T12:34:48.415Z,10.35
2023-04-16T12:39:50.668Z,10.35
2023-04-16T12:44:52.128Z,10.38
2023-04-16T12:49:53.981Z,11.02
2023-04-16T12:54:55.565Z,9.70
2023-04-16T12:59:58.262Z,9.90
2023-04-16T13:05:00.016Z,10.93
2023-04-16T13:10:01.633Z,11.23
2023-04-16T13:15:03.317Z,11.23
2023-04-16T13:20:05.227Z,12.98
2023-04-16T13:25:07.441Z,13.65
2023-04-16T13:30:09.433Z,12.13
2023-04-16T13:35:11.800Z,11.73
2023-04-16T13:40:13.329Z,12.93
2023-04-16T13:45:14.900Z,12.40
2023-04-16T13:50:17.678Z,12.38
2023-04-16T13:55:19.298Z,12.52
2023-04-16T14:00:20.885Z,12.35
2023-04-16T14:05:25.182Z,12.55
2023-04-16T14:10:28.121Z,13.75
2023-04-16T14:15:30.003Z,13.48
2023-04-16T14:20:31.733Z,14.23
2023-04-16T14:25:33.949Z,13.98
2023-04-16T14:30:35.605Z,13.50
2023-04-16T14:35:37.176Z,14.38
2023-04-16T14:40:38.788Z,13.50
2023-04-16T14:45:40.835Z,13.25
2023-04-16T14:50:44.060Z,12.75
2023-04-16T14:55:45.757Z,11.68
2023-04-16T15:00:47.272Z,13.23
2023-04-16T15:05:54.794Z,13.15
2023-04-16T15:10:56.777Z,12.82
2023-04-16T15:15:58.416Z,13.02
2023-04-16T15:20:59.956Z,14.35
2023-04-16T15:26:01.419Z,15.00
2023-04-16T15:31:02.960Z,16.20
2023-04-16T15:36:04.911Z,17.80
2023-04-16T15:41:06.635Z,16.80
2023-04-16T15:46:08.840Z,17.23
2023-04-16T15:51:11.005Z,16.65
2023-04-16T15:56:14.079Z,17.23
2023-04-16T16:01:15.660Z,17.15
2023-04-16T16:06:18.255Z,16.85
2023-04-16T16:11:19.986Z,16.67
2023-04-16T16:16:21.867Z,15.02
2023-04-16T16:21:26.401Z,16.02
2023-04-16T16:26:28.075Z,16.27
2023-04-16T16:31:31.083Z,16.80
2023-04-16T16:36:36.562Z,15.73
2023-04-16T16:41:41.974Z,17.17
2023-04-16T16:46:43.562Z,16.65
2023-04-16T16:51:46.431Z,16.88
2023-04-16T16:56:47.939Z,15.90
2023-04-16T17:01:49.516Z,16.95
2023-04-16T17:06:51.179Z,16.92
2023-04-16T17:11:52.744Z,17.30
2023-04-16T17:16:54.603Z,17.20
2023-04-16T17:21:56.340Z,18.35
2023-04-16T17:26:58.502Z,18.20
2023-04-16T17:32:00.147Z,17.25
2023-04-16T17:37:01.777Z,19.65
2023-04-16T17:42:03.969Z,19.08
2023-04-16T17:47:05.675Z,20.50
2023-04-16T17:52:07.264Z,21.73
2023-04-16T17:57:08.806Z,20.65
2023-04-16T18:02:10.540Z,22.73
2023-04-16T18:07:12.318Z,21.08
2023-04-16T18:12:13.801Z,19.98
2023-04-16T18:17:15.617Z,20.52
2023-04-16T18:22:17.135Z,19.35
2023-04-16T18:27:18.843Z,21.98
2023-04-16T18:32:20.374Z,20.38
2023-04-16T18:37:21.965Z,19.98
2023-04-16T18:42:29.548Z,20.52
2023-04-16T18:47:31.128Z,19.38
2023-04-16T18:52:32.669Z,19.17
2023-04-16T18:57:34.245Z,20.15
2023-04-16T19:02:35.948Z,19.77
2023-04-16T19:07:37.867Z,20.15
2023-04-16T19:12:39.387Z,19.88
2023-04-16T19:17:40.896Z,20.23
2023-04-16T19:22:42.407Z,23.05
2023-04-16T19:27:43.930Z,20.40
2023-04-16T19:32:45.465Z,21.08
2023-04-16T19:37:46.977Z,20.38
2023-04-16T19:42:48.515Z,21.50
2023-04-16T19:47:51.141Z,19.70
2023-04-16T19:52:52.806Z,20.17
2023-04-16T19:57:54.324Z,20.88
2023-04-16T20:02:56.096Z,21.83
2023-04-16T20:07:57.738Z,23.83
2023-04-16T20:12:59.311Z,25.25
2023-04-16T20:18:00.911Z,23.40
2023-04-16T20:23:03.837Z,23.98
2023-04-16T20:28:05.470Z,23.55
2023-04-16T20:33:07.583Z,21.98
2023-04-16T20:38:09.198Z,21.48
2023-04-16T20:43:14.225Z,21.20
2023-04-16T20:48:15.978Z,22.13
2023-04-16T20:53:17.556Z,21.25
2023-04-16T20:58:19.030Z,22.45
2023-04-16T21:03:21.578Z,21.20
2023-04-16T21:08:23.807Z,21.52
2023-04-16T21:13:25.566Z,24.05
2023-04-16T21:18:27.196Z,23.73
2023-04-16T21:23:28.737Z,21.58
2023-04-16T21:28:30.278Z,20.45
2023-04-16T21:33:31.790Z,21.60
2023-04-16T21:38:33.378Z,22.02
2023-04-16T21:43:34.905Z,21.17
2023-04-16T21:48:36.448Z,23.45
2023-04-16T21:53:39.083Z,23.67
2023-04-16T21:58:40.600Z,22.23
2023-04-16T22:03:42.316Z,21.38
2023-04-16T22:08:44.094Z,23.35
2023-04-16T22:13:47.501Z,20.40
2023-04-16T22:18:49.425Z,20.75
2023-04-16T22:23:50.906Z,19.95
2023-04-16T22:28:52.436Z,21.95
2023-04-16T22:33:53.904Z,22.20
2023-04-16T22:38:55.387Z,20.67
2023-04-16T22:43:56.894Z,20.52
2023-04-16T22:48:58.396Z,20.80
2023-04-16T22:53:59.963Z,23.52
2023-04-16T22:59:01.423Z,22.80
2023-04-16T23:04:02.938Z,22.58
2023-04-16T23:09:05.192Z,21.83
2023-04-16T23:14:07.616Z,22.83
2023-04-16T23:19:14.707Z,21.75
2023-04-16T23:24:17.140Z,22.38
2023-04-16T23:29:18.695Z,25.67
2023-04-16T23:34:20.205Z,23.25
2023-04-16T23:39:21.722Z,23.33
2023-04-16T23:44:23.246Z,24.60
2023-04-16T23:49:24.877Z,26.30
2023-04-16T23:54:26.413Z,27.17
2023-04-16T23:59:27.972Z,27.85
